createdAt,value
2022-10-10T00:01:31.265Z,101544.47
2022-10-10T00:03:58.608Z,101538.34
2022-10-10T00:06:29.185Z,101533.53
2022-10-10T00:08:59.328Z,101537.09
2022-10-10T00:11:26.065Z,101535.38
2022-10-10T00:13:52.804Z,101531.25
2022-10-10T00:16:20.538Z,101540.63
2022-10-10T00:18:47.776Z,101530.47
2022-10-10T00:21:14.995Z,101527.25
2022-10-10T00:23:41.913Z,101519.78
2022-10-10T00:26:09.628Z,101521.19
2022-10-10T00:28:38.889Z,101519.63
2022-10-10T00:31:09.787Z,101515.78
2022-10-10T00:33:37.274Z,101512.44
2022-10-10T00:36:05.378Z,101510.03
2022-10-10T00:38:32.631Z,101509.53
2022-10-10T00:40:59.588Z,101508.03
2022-10-10T00:43:27.258Z,101509.94
2022-10-10T00:45:54.293Z,101508.16
2022-10-10T00:48:26.287Z,101502.03
2022-10-10T00:50:55.947Z,101494.13
2022-10-10T00:53:28.822Z,101492.88
2022-10-10T00:55:56.499Z,101485.00
2022-10-10T00:58:24.183Z,101481.19
2022-10-10T01:00:52.104Z,101489.88
2022-10-10T01:03:19.017Z,101476.78
2022-10-10T01:05:47.719Z,101482.81
2022-10-10T01:08:14.973Z,101476.25
2022-10-10T01:10:59.692Z,101466.47
2022-10-10T01:13:54.080Z,101475.47
2022-10-10T01:16:37.916Z,101466.47
2022-10-10T01:19:31.883Z,101469.97
2022-10-10T01:22:25.730Z,101471.97
2022-10-10T01:25:07.411Z,101470.81
2022-10-10T01:27:52.827Z,101462.25
2022-10-10T01:30:24.296Z,101460.94
2022-10-10T01:33:03.050Z,101465.84
2022-10-10T01:35:48.242Z,101463.22
2022-10-10T01:39:18.784Z,101458.50
2022-10-10T01:41:59.787Z,101453.00
2022-10-10T01:44:26.377Z,101451.16
2022-10-10T01:46:53.237Z,101441.44
2022-10-10T01:49:30.930Z,101444.09
2022-10-10T01:52:05.970Z,101437.94
2022-10-10T01:54:36.286Z,101431.22
2022-10-10T01:57:18.167Z,101426.41
2022-10-10T02:00:06.973Z,101439.00
2022-10-10T02:02:55.030Z,101431.31
2022-10-10T02:05:25.885Z,101443.03
2022-10-10T02:08:05.569Z,101445.28
2022-10-10T02:10:36.591Z,101443.03
2022-10-10T02:13:05.723Z,101435.78
2022-10-10T02:15:42.642Z,101426.94
2022-10-10T02:18:10.934Z,101431.56
2022-10-10T02:20:37.792Z,101420.03
2022-10-10T02:23:06.948Z,101416.63
2022-10-10T02:25:39.086Z,101409.19
2022-10-10T02:28:12.898Z,101406.81
2022-10-10T02:30:45.237Z,101404.09
2022-10-10T02:33:16.053Z,101398.88
2022-10-10T02:35:45.639Z,101401.69
2022-10-10T02:38:14.519Z,101392.34
2022-10-10T02:40:44.871Z,101394.59
2022-10-10T02:43:12.956Z,101390.59
2022-10-10T02:45:40.812Z,101387.16
2022-10-10T02:48:07.752Z,101389.50
2022-10-10T02:50:35.179Z,101384.88
2022-10-10T02:53:01.933Z,101385.78
2022-10-10T02:55:28.640Z,101387.78
2022-10-10T02:57:55.423Z,101389.50
2022-10-10T03:00:22.153Z,101378.41
2022-10-10T03:02:49.606Z,101384.44
2022-10-10T03:05:16.633Z,101373.97
2022-10-10T03:07:43.338Z,101370.63
2022-10-10T03:10:10.746Z,101375.25
2022-10-10T03:12:37.614Z,101368.88
2022-10-10T03:15:09.348Z,101380.44
2022-10-10T03:17:38.363Z,101359.97
2022-10-10T03:20:05.997Z,101356.31
2022-10-10T03:22:32.736Z,101357.78
2022-10-10T03:24:59.519Z,101354.75
2022-10-10T03:27:27.071Z,101352.53
2022-10-10T03:29:53.901Z,101356.28
2022-10-10T03:32:20.622Z,101355.66
2022-10-10T03:34:47.302Z,101343.88
2022-10-10T03:37:14.052Z,101351.75
2022-10-10T03:39:40.710Z,101345.78
2022-10-10T03:42:07.319Z,101340.72
2022-10-10T03:44:34.609Z,101339.16
2022-10-10T03:47:01.333Z,101338.69
2022-10-10T03:49:28.096Z,101339.41
2022-10-10T03:51:54.929Z,101326.50
2022-10-10T03:54:21.668Z,101330.97
2022-10-10T03:56:48.300Z,101325.00
2022-10-10T03:59:14.941Z,101320.16
2022-10-10T04:01:41.723Z,101322.50
2022-10-10T04:04:08.612Z,101318.28
2022-10-10T04:06:35.439Z,101314.56
2022-10-10T04:09:02.132Z,101302.69
2022-10-10T04:11:28.873Z,101291.00
2022-10-10T04:13:55.697Z,101269.03
2022-10-10T04:16:22.308Z,101272.25
2022-10-10T04:18:49.070Z,101268.59
2022-10-10T04:21:15.776Z,101266.31
2022-10-10T04:23:42.465Z,101266.31
2022-10-10T04:26:09.141Z,101265.16
2022-10-10T04:28:35.897Z,101254.59
2022-10-10T04:31:02.637Z,101253.22
2022-10-10T04:33:29.282Z,101240.97
2022-10-10T04:35:55.981Z,101246.38
2022-10-10T04:38:22.827Z,101245.88
2022-10-10T04:40:50.984Z,101246.16
2022-10-10T04:43:18.546Z,101240.63
2022-10-10T04:45:47.708Z,101241.31
2022-10-10T04:48:14.529Z,101230.34
2022-10-10T04:50:41.433Z,101222.06
2022-10-10T04:53:08.057Z,101221.09
2022-10-10T04:55:34.917Z,101225.19
2022-10-10T04:58:01.860Z,101211.69
2022-10-10T05:00:28.534Z,101213.72
2022-10-10T05:02:55.204Z,101213.56
2022-10-10T05:05:22.001Z,101201.00
2022-10-10T05:07:51.864Z,101190.53
2022-10-10T05:10:22.270Z,101192.25
2022-10-10T05:12:49.170Z,101185.25
2022-10-10T05:15:16.992Z,101200.94
2022-10-10T05:17:43.713Z,101195.63
2022-10-10T05:20:10.903Z,101190.66
2022-10-10T05:22:37.547Z,101175.16
2022-10-10T05:25:04.560Z,101170.25
2022-10-10T05:27:31.305Z,101164.50
2022-10-10T05:29:58.078Z,101156.56
2022-10-10T05:32:24.776Z,101151.75
2022-10-10T05:34:51.536Z,101144.06
2022-10-10T05:37:18.211Z,101141.31
2022-10-10T05:39:44.850Z,101138.44
2022-10-10T05:42:14.035Z,101147.50
2022-10-10T05:44:41.065Z,101135.13
2022-10-10T05:47:07.759Z,101133.09
2022-10-10T05:49:34.525Z,101137.03
2022-10-10T05:52:01.292Z,101131.69
2022-10-10T05:54:27.948Z,101115.91
2022-10-10T05:56:54.664Z,101115.50
2022-10-10T05:59:21.478Z,101115.13
2022-10-10T06:01:48.226Z,101114.09
2022-10-10T06:04:14.982Z,101109.41
2022-10-10T06:06:42.080Z,101104.69
2022-10-10T06:09:09.648Z,101104.00
2022-10-10T06:11:36.636Z,101099.28
2022-10-10T06:14:03.440Z,101095.81
2022-10-10T06:16:30.221Z,101080.56
2022-10-10T06:18:57.226Z,101085.91
2022-10-10T06:21:25.104Z,101086.28
2022-10-10T06:23:52.357Z,101082.00
2022-10-10T06:26:19.093Z,101072.78
2022-10-10T06:28:46.112Z,101078.72
2022-10-10T06:31:14.724Z,101082.41
2022-10-10T06:33:45.408Z,101079.81
2022-10-10T06:36:13.761Z,101084.19
2022-10-10T06:38:42.517Z,101089.03
2022-10-10T06:41:09.840Z,101085.19
2022-10-10T06:43:37.007Z,101087.06
2022-10-10T06:46:04.222Z,101084.34
2022-10-10T06:48:32.164Z,101080.69
2022-10-10T06:51:12.825Z,101084.50
2022-10-10T06:53:39.584Z,101088.25
2022-10-10T06:56:06.276Z,101091.47
2022-10-10T06:58:33.741Z,101104.03
2022-10-10T07:01:03.038Z,101109.09
2022-10-10T07:03:31.497Z,101106.75
2022-10-10T07:06:00.827Z,101110.25
2022-10-10T07:08:28.517Z,101132.13
2022-10-10T07:10:55.267Z,101136.97
2022-10-10T07:13:21.936Z,101145.22
2022-10-10T07:15:48.890Z,101146.44
2022-10-10T07:18:17.957Z,101142.97
2022-10-10T07:20:44.624Z,101142.50
2022-10-10T07:23:11.373Z,101153.44
2022-10-10T07:25:39.668Z,101159.84
2022-10-10T07:28:07.556Z,101166.66
2022-10-10T07:30:39.248Z,101184.41
2022-10-10T07:33:05.909Z,101183.44
2022-10-10T07:35:32.666Z,101193.53
2022-10-10T07:37:59.310Z,101204.06
2022-10-10T07:40:26.183Z,101197.44
2022-10-10T07:42:53.306Z,101208.34
2022-10-10T07:45:20.522Z,101216.44
2022-10-10T07:47:47.195Z,101218.66
2022-10-10T07:50:14.018Z,101219.44
2022-10-10T07:52:40.925Z,101229.19
2022-10-10T07:55:08.812Z,101237.03
2022-10-10T07:57:35.822Z,101245.50
2022-10-10T08:00:09.230Z,101256.16
2022-10-10T08:02:36.712Z,101256.72
2022-10-10T08:05:03.806Z,101268.16
2022-10-10T08:07:30.689Z,101273.72
2022-10-10T08:09:57.429Z,101279.94
2022-10-10T08:12:24.146Z,101281.31
2022-10-10T08:14:50.922Z,101288.94
2022-10-10T08:17:17.717Z,101288.25
2022-10-10T08:19:44.442Z,101288.69
2022-10-10T08:22:11.166Z,101283.13
2022-10-10T08:24:37.894Z,101283.09
2022-10-10T08:27:04.576Z,101284.84
2022-10-10T08:29:33.422Z,101283.34
2022-10-10T08:32:00.323Z,101283.00
2022-10-10T08:34:27.051Z,101294.06
2022-10-10T08:36:53.828Z,101287.66
2022-10-10T08:39:20.462Z,101286.13
2022-10-10T08:41:50.514Z,101296.75
2022-10-10T08:44:29.307Z,101281.03
2022-10-10T08:47:00.888Z,101287.44
2022-10-10T08:49:34.818Z,101283.56
2022-10-10T08:52:05.638Z,101286.81
2022-10-10T08:54:34.679Z,101281.28
2022-10-10T08:57:05.436Z,101282.16
2022-10-10T08:59:38.587Z,101290.66
2022-10-10T09:02:43.923Z,101284.94
2022-10-10T09:05:30.929Z,101271.75
2022-10-10T09:08:26.758Z,101285.16
2022-10-10T09:11:07.033Z,101284.03
2022-10-10T09:13:39.837Z,101275.72
2022-10-10T09:16:19.951Z,101270.03
2022-10-10T09:19:05.279Z,101274.00
2022-10-10T09:21:34.936Z,101262.22
2022-10-10T09:24:12.976Z,101266.81
2022-10-10T09:26:49.198Z,101284.25
2022-10-10T09:29:27.606Z,101280.72
2022-10-10T09:32:23.013Z,101269.38
2022-10-10T09:34:54.986Z,101268.63
2022-10-10T09:37:45.714Z,101256.63
2022-10-10T09:40:17.819Z,101262.72
2022-10-10T09:42:45.192Z,101253.75
2022-10-10T09:45:32.895Z,101254.88
2022-10-10T09:47:59.775Z,101255.69
2022-10-10T09:50:27.005Z,101263.88
2022-10-10T09:52:57.080Z,101247.00
2022-10-10T09:55:39.647Z,101265.16
2022-10-10T09:58:36.944Z,101243.94
2022-10-10T10:01:21.411Z,101264.69
2022-10-10T10:04:30.434Z,101259.69
2022-10-10T10:07:32.151Z,101251.97
2022-10-10T10:10:11.349Z,101251.69
2022-10-10T10:12:41.024Z,101240.44
2022-10-10T10:15:19.024Z,101228.78
2022-10-10T10:17:45.944Z,101266.88
2022-10-10T10:20:47.347Z,101250.25
2022-10-10T10:23:32.446Z,101258.44
2022-10-10T10:26:03.609Z,101256.97
2022-10-10T10:28:30.401Z,101262.41
2022-10-10T10:30:58.617Z,101260.81
2022-10-10T10:33:46.534Z,101252.31
2022-10-10T10:36:25.656Z,101251.91
2022-10-10T10:38:54.438Z,101237.78
2022-10-10T10:41:42.529Z,101216.94
2022-10-10T10:44:23.868Z,101221.78
2022-10-10T10:47:17.893Z,101217.56
2022-10-10T10:50:03.498Z,101213.84
2022-10-10T10:53:07.337Z,101232.50
2022-10-10T10:55:49.035Z,101228.69
2022-10-10T11:02:09.440Z,101217.69
2022-10-10T11:05:22.032Z,101206.75
2022-10-10T11:07:30.509Z,101205.78
2022-10-10T11:10:10.116Z,101221.91
2022-10-10T11:12:58.125Z,101222.66
2022-10-10T11:16:05.618Z,101207.94
2022-10-10T11:18:35.253Z,101225.84
2022-10-10T11:21:08.311Z,101220.88
2022-10-10T11:23:43.456Z,101216.81
2022-10-10T11:26:22.038Z,101226.53
2022-10-10T11:29:00.368Z,101210.91
2022-10-10T11:31:33.388Z,101194.69
2022-10-10T11:34:06.805Z,101186.41
2022-10-10T11:36:37.527Z,101191.81
2022-10-10T11:39:20.650Z,101212.25
2022-10-10T11:42:14.010Z,101226.06
2022-10-10T11:45:05.272Z,101205.56
2022-10-10T11:47:37.866Z,101190.22
2022-10-10T11:50:34.168Z,101183.28
2022-10-10T11:53:11.425Z,101187.03
2022-10-10T11:55:43.763Z,101191.13
2022-10-10T11:58:10.310Z,101186.94
2022-10-10T12:00:59.265Z,101174.72
2022-10-10T12:03:26.742Z,101194.19
2022-10-10T12:06:14.431Z,101195.53
2022-10-10T12:08:54.443Z,101192.25
2022-10-10T12:11:26.492Z,101180.09
2022-10-10T12:13:57.145Z,101184.28
2022-10-10T12:16:30.763Z,101176.34
2022-10-10T12:19:06.898Z,101204.59
2022-10-10T12:21:53.332Z,101193.53
2022-10-10T12:24:20.591Z,101197.00
2022-10-10T12:26:56.571Z,101193.38
2022-10-10T12:29:51.382Z,101189.22
2022-10-10T12:32:18.157Z,101177.81
2022-10-10T12:34:47.792Z,101189.78
2022-10-10T12:37:31.491Z,101199.09
2022-10-10T12:40:07.422Z,101202.97
2022-10-10T12:43:01.620Z,101191.97
2022-10-10T12:45:31.384Z,101184.13
2022-10-10T12:48:06.262Z,101194.28
2022-10-10T12:50:41.712Z,101202.78
2022-10-10T12:53:19.821Z,101206.84
2022-10-10T12:55:47.617Z,101207.91
2022-10-10T12:58:27.446Z,101207.63
2022-10-10T13:01:01.057Z,101201.75
2022-10-10T13:03:31.358Z,101201.53
2022-10-10T13:06:26.335Z,101207.31
2022-10-10T13:08:55.163Z,101197.00
2022-10-10T13:11:23.267Z,101201.50
2022-10-10T13:13:52.277Z,101214.41
2022-10-10T13:16:21.953Z,101218.16
2022-10-10T13:18:57.466Z,101222.63
2022-10-10T13:21:29.331Z,101218.00
2022-10-10T13:24:03.621Z,101222.91
2022-10-10T13:26:36.404Z,101221.47
2022-10-10T13:29:23.253Z,101215.53
2022-10-10T13:31:53.096Z,101216.00
2022-10-10T13:34:27.244Z,101218.41
2022-10-10T13:36:59.898Z,101207.81
2022-10-10T13:39:28.694Z,101208.19
2022-10-10T13:41:56.234Z,101207.47
2022-10-10T13:44:46.242Z,101189.78
2022-10-10T13:47:58.087Z,101193.38
2022-10-10T13:50:32.679Z,101201.44
2022-10-10T13:53:27.918Z,101205.47
2022-10-10T13:56:11.304Z,101209.47
2022-10-10T13:58:51.243Z,101211.25
2022-10-10T14:01:29.582Z,101219.16
2022-10-10T14:04:23.555Z,101221.22
2022-10-10T14:07:11.394Z,101214.72
2022-10-10T14:09:43.903Z,101204.38
2022-10-10T14:12:42.968Z,101203.53
2022-10-10T14:15:35.279Z,101193.91
2022-10-10T14:18:10.618Z,101184.94
2022-10-10T14:20:37.346Z,101196.97
2022-10-10T14:23:04.963Z,101200.16
2022-10-10T14:25:32.215Z,101201.38
2022-10-10T14:27:59.023Z,101211.41
2022-10-10T14:30:25.725Z,101212.06
2022-10-10T14:32:52.527Z,101217.16
2022-10-10T14:35:19.214Z,101223.41
2022-10-10T14:37:45.939Z,101216.63
2022-10-10T14:40:21.461Z,101216.69
2022-10-10T14:42:48.658Z,101212.06
2022-10-10T14:45:16.965Z,101205.78
2022-10-10T14:47:43.744Z,101212.88
2022-10-10T14:50:38.370Z,101209.94
2022-10-10T14:53:05.008Z,101210.66
2022-10-10T14:55:31.811Z,101215.47
2022-10-10T14:57:58.666Z,101223.69
2022-10-10T15:00:27.196Z,101223.84
2022-10-10T15:02:54.546Z,101227.88
2022-10-10T15:05:22.104Z,101223.47
2022-10-10T15:07:53.494Z,101220.38
2022-10-10T15:10:35.733Z,101224.22
2022-10-10T15:13:03.135Z,101218.22
2022-10-10T15:15:30.136Z,101219.06
2022-10-10T15:18:00.679Z,101209.44
2022-10-10T15:20:31.185Z,101211.38
2022-10-10T15:23:03.099Z,101213.00
2022-10-10T15:25:33.657Z,101216.16
2022-10-10T15:28:02.479Z,101216.59
2022-10-10T15:30:29.386Z,101222.75
2022-10-10T15:32:56.079Z,101217.88
2022-10-10T15:35:24.974Z,101227.22
2022-10-10T15:37:51.847Z,101227.25
2022-10-10T15:40:23.099Z,101218.31
2022-10-10T15:42:50.704Z,101217.09
2022-10-10T15:45:36.899Z,101211.13
2022-10-10T15:48:04.873Z,101214.09
2022-10-10T15:50:32.522Z,101226.78
2022-10-10T15:52:59.165Z,101218.94
2022-10-10T15:55:26.301Z,101219.59
2022-10-10T15:57:52.974Z,101223.44
2022-10-10T16:00:19.848Z,101223.69
2022-10-10T16:02:46.624Z,101223.31
2022-10-10T16:05:13.401Z,101216.25
2022-10-10T16:07:47.726Z,101211.78
2022-10-10T16:10:15.735Z,101197.25
2022-10-10T16:12:42.620Z,101183.66
2022-10-10T16:15:09.447Z,101172.75
2022-10-10T16:17:36.183Z,101154.38
2022-10-10T16:20:03.306Z,101135.38
2022-10-10T16:22:30.021Z,101126.84
2022-10-10T16:27:43.610Z,101101.13
2022-10-10T16:30:10.754Z,101084.63
2022-10-10T16:32:42.084Z,101061.44
2022-10-10T16:35:10.381Z,101038.13
2022-10-10T16:37:37.137Z,101014.06
2022-10-10T16:40:04.226Z,100987.28
2022-10-10T16:42:30.989Z,100966.94
2022-10-10T16:44:57.684Z,100948.94
2022-10-10T16:47:24.420Z,100924.03
2022-10-10T16:49:51.100Z,100915.25
2022-10-10T16:52:17.704Z,100896.84
2022-10-10T16:54:46.891Z,100896.53
2022-10-10T16:57:16.900Z,100875.69
2022-10-10T16:59:43.613Z,100851.00
2022-10-10T17:02:11.533Z,100835.00
2022-10-10T17:04:38.218Z,100832.66
2022-10-10T17:07:04.930Z,100827.38
2022-10-10T17:09:31.800Z,100815.47
2022-10-10T17:11:58.494Z,100802.97
2022-10-10T17:14:25.222Z,100783.66
2022-10-10T17:17:11.952Z,100774.00
2022-10-10T17:19:38.686Z,100747.25
2022-10-10T17:22:05.405Z,100750.00
2022-10-10T17:24:33.208Z,100755.66
2022-10-10T17:26:59.912Z,100750.84
2022-10-10T17:29:26.664Z,100750.72
2022-10-10T17:31:53.409Z,100764.81
2022-10-10T17:34:20.162Z,100781.75
2022-10-10T17:36:46.889Z,100792.28
2022-10-10T17:39:13.540Z,100784.31
2022-10-10T17:41:40.617Z,100794.69
2022-10-10T17:44:10.719Z,100810.88
2022-10-10T17:46:38.585Z,100815.81
2022-10-10T17:49:07.347Z,100831.06
2022-10-10T17:51:35.624Z,100835.09
2022-10-10T17:54:04.324Z,100836.09
2022-10-10T17:56:31.412Z,100814.22
2022-10-10T17:59:01.340Z,100822.97
2022-10-10T18:01:30.640Z,100823.84
2022-10-10T18:03:58.421Z,100815.88
2022-10-10T18:06:25.542Z,100808.94
2022-10-10T18:08:54.006Z,100802.75
2022-10-10T18:11:22.983Z,100782.72
2022-10-10T18:13:50.499Z,100788.13
2022-10-10T18:16:20.546Z,100790.81
2022-10-10T18:18:51.268Z,100784.75
2022-10-10T18:21:20.500Z,100790.72
2022-10-10T18:23:47.698Z,100787.72
2022-10-10T18:26:23.136Z,100795.34
2022-10-10T18:28:52.465Z,100779.28
2022-10-10T18:31:25.567Z,100775.81
2022-10-10T18:33:52.355Z,100774.41
2022-10-10T18:36:22.748Z,100771.41
2022-10-10T18:38:49.640Z,100770.78
2022-10-10T18:41:25.253Z,100750.72
2022-10-10T18:43:52.114Z,100787.75
2022-10-10T18:46:22.108Z,100787.94
2022-10-10T18:48:52.954Z,100786.34
2022-10-10T18:51:24.635Z,100792.09
2022-10-10T18:53:55.293Z,100784.19
2022-10-10T18:56:24.798Z,100776.38
2022-10-10T18:58:56.045Z,100780.53
2022-10-10T19:01:25.099Z,100766.31
2022-10-10T19:03:53.165Z,100765.44
2022-10-10T19:06:20.764Z,100769.00
2022-10-10T19:08:47.705Z,100766.31
2022-10-10T19:11:23.318Z,100757.53
2022-10-10T19:13:50.613Z,100749.47
2022-10-10T19:16:17.906Z,100760.03
2022-10-10T19:18:45.425Z,100757.09
2022-10-10T19:21:13.070Z,100749.94
2022-10-10T19:23:40.019Z,100758.63
2022-10-10T19:26:09.311Z,100763.72
2022-10-10T19:28:37.525Z,100772.09
2022-10-10T19:31:06.822Z,100769.38
2022-10-10T19:33:34.490Z,100766.22
2022-10-10T19:36:04.237Z,100757.00
2022-10-10T19:38:33.787Z,100769.38
2022-10-10T19:41:01.042Z,100767.56
2022-10-10T19:43:29.022Z,100767.88
2022-10-10T19:45:55.919Z,100764.53
2022-10-10T19:48:24.727Z,100758.66
2022-10-10T19:50:53.567Z,100763.00
2022-10-10T19:53:20.269Z,100775.81
2022-10-10T19:55:58.323Z,100769.41
2022-10-10T19:58:25.251Z,100777.56
2022-10-10T20:00:51.941Z,100783.06
2022-10-10T20:03:18.695Z,100757.59
2022-10-10T20:05:45.362Z,100755.09
2022-10-10T20:08:12.235Z,100760.50
2022-10-10T20:10:43.187Z,100754.97
2022-10-10T20:13:14.780Z,100746.94
2022-10-10T20:15:43.869Z,100749.00
2022-10-10T20:18:11.822Z,100742.81
2022-10-10T20:20:51.333Z,100745.66
2022-10-10T20:23:22.509Z,100747.25
2022-10-10T20:25:49.258Z,100759.72
2022-10-10T20:28:18.509Z,100757.75
2022-10-10T20:30:51.203Z,100765.00
2022-10-10T20:33:19.158Z,100764.38
2022-10-10T20:35:46.916Z,100759.72
2022-10-10T20:38:14.441Z,100756.44
2022-10-10T20:40:43.918Z,100756.25
2022-10-10T20:43:14.744Z,100752.66
2022-10-10T20:45:41.464Z,100751.34
2022-10-10T20:48:09.217Z,100761.13
2022-10-10T20:50:37.215Z,100755.16
2022-10-10T20:53:04.658Z,100750.28
2022-10-10T20:55:31.668Z,100758.72
2022-10-10T20:57:58.409Z,100757.41
2022-10-10T21:00:26.662Z,100762.59
2022-10-10T21:02:55.956Z,100769.31
2022-10-10T21:05:23.502Z,100775.63
2022-10-10T21:07:50.260Z,100777.44
2022-10-10T21:10:17.089Z,100776.81
2022-10-10T21:12:43.824Z,100786.31
2022-10-10T21:15:10.864Z,100779.16
2022-10-10T21:17:37.595Z,100788.28
2022-10-10T21:20:05.690Z,100789.44
2022-10-10T21:22:32.658Z,100793.91
2022-10-10T21:24:59.385Z,100790.97
2022-10-10T21:27:26.250Z,100786.31
2022-10-10T21:29:52.956Z,100788.06
2022-10-10T21:32:19.620Z,100786.19
2022-10-10T21:34:46.642Z,100785.66
2022-10-10T21:37:13.679Z,100794.88
2022-10-10T21:39:40.339Z,100793.34
2022-10-10T21:42:06.998Z,100831.50
2022-10-10T21:44:33.775Z,100834.00
2022-10-10T21:47:00.581Z,100842.41
2022-10-10T21:49:27.240Z,100833.53
2022-10-10T21:51:53.949Z,100837.88
2022-10-10T21:54:20.698Z,100836.22
2022-10-10T21:56:47.409Z,100842.53
2022-10-10T21:59:14.049Z,100838.94
2022-10-10T22:01:40.766Z,100833.94
2022-10-10T22:04:07.608Z,100846.72
2022-10-10T22:06:34.679Z,100847.59
2022-10-10T22:09:01.875Z,100850.09
2022-10-10T22:11:31.346Z,100858.22
2022-10-10T22:13:58.517Z,100859.97
2022-10-10T22:16:25.278Z,100851.84
2022-10-10T22:18:56.153Z,100857.16
2022-10-10T22:21:28.022Z,100854.56
2022-10-10T22:23:57.044Z,100843.50
2022-10-10T22:26:23.841Z,100835.59
2022-10-10T22:28:50.604Z,100839.41
2022-10-10T22:31:17.535Z,100843.19
2022-10-10T22:33:48.355Z,100846.78
2022-10-10T22:36:15.858Z,100848.72
2022-10-10T22:38:45.163Z,100855.97
2022-10-10T22:41:13.577Z,100853.72
2022-10-10T22:43:40.272Z,100858.88
2022-10-10T22:46:07.687Z,100858.03
2022-10-10T22:48:35.294Z,100863.84
2022-10-10T22:51:13.786Z,100865.47
2022-10-10T22:53:41.776Z,100867.53
2022-10-10T22:56:10.266Z,100871.88
2022-10-10T22:58:37.051Z,100873.94
2022-10-10T23:01:09.345Z,100881.44
2022-10-10T23:03:36.010Z,100873.16
2022-10-10T23:06:03.520Z,100884.56
2022-10-10T23:08:31.302Z,100888.34
2022-10-10T23:10:58.116Z,100889.34
2022-10-10T23:13:25.640Z,100887.59
2022-10-10T23:15:52.314Z,100897.94
2022-10-10T23:18:19.066Z,100890.91
2022-10-10T23:20:47.274Z,100899.09
2022-10-10T23:23:15.311Z,100901.16
2022-10-10T23:25:47.012Z,100904.91
2022-10-10T23:28:15.259Z,100900.47
2022-10-10T23:30:43.961Z,100905.31
2022-10-10T23:33:11.640Z,100912.66
2022-10-10T23:35:38.845Z,100908.41
2022-10-10T23:38:06.081Z,100909.75
2022-10-10T23:40:33.894Z,100914.78
2022-10-10T23:43:00.570Z,100916.72
2022-10-10T23:45:27.271Z,100922.34
2022-10-10T23:47:53.933Z,100923.31
2022-10-10T23:50:24.087Z,100930.53
2022-10-10T23:52:50.808Z,100930.66
2022-10-10T23:55:17.549Z,100930.84
2022-10-10T23:57:44.212Z,100934.91
